Details for Wideroe at ENBR




Go Back


Latest METAR
Local Time

ENBR 241350Z 16008KT 9999 FEW015 BKN055 02/M06 Q1035 NOSIG RMK WIND 1200FT 16010KT

24/02/2018, 15:01:30

Description
Results
Wideroe Logo
Number of Pilots based at ENBR
0 Pilots Based here
Number of Wideroe Flights Departed from ENBR
3 Flights Departed
Number of Wideroe Flights Arrived at ENBR
1 Flights Arrived
Number of Wideroe Schedules Departing from ENBR
104 Schedules
Number of Wideroe Schedules Arriving at ENBR
108 Schedules
Number of Wideroe Schedules Departing from ENBR availible today
8 Schedules Today
Number of Wideroe Schedules Arriving at ENBR availible today
9 Schedules Today
Average Landing Rate at ENBR
-213 fpm
Wideroe Average Landing Rate at ENBR
-26 fpm
Total Fuel Purchased at ENBR by Wideroe
4,280.10 kgs / 9,435.91 lbs

Pilots Based at ENBR


Pilot ID
Pilot Name
Pilot Rank
No. of Flights
No. of Flying Hours
There are no pilots assigned to this hub!   Will you be the first?
Content